Seaspan Royal — CFN5543 — position and weather

sailwx.info

Track history (hours):
 
Tides and Currents Weather Stations Pressure Air Temp Water Temp Dewpoint Dewpoint Depression Visibility Wind Speed Wind Dir Waves Ship Positions

Seaspan Royal

Last reported at 2018-Jul-16 20:09 UTC. Time now 2018-Jul-17 19:01 UTC.
Position N 52°47' W 129°08'.

Length 40 m; draft 5.6 m.

Type: Tug. MMSI: 316003600.

Date/timePositionNaut miles runAvg speedWind from/ knotsBaromVisibWave heightAir tempDewpointWater temp
2018-Jul-16 20:09N 52°47' W 129°08'2 9.0
2018-Jul-16 19:59N 52°45' W 129°07'5 8.9
2018-Jul-16 19:25N 52°42' W 129°01'3 8.3
2018-Jul-16 19:01N 52°39' W 128°56'6 8.8
2018-Jul-16 18:21N 52°34' W 128°53'3 9.0
2018-Jul-16 18:00N 52°31' W 128°52'5 9.4
2018-Jul-16 17:31N 52°26' W 128°51'510.7
2018-Jul-16 17:01N 52°21' W 128°50'510.4
2018-Jul-16 16:31N 52°16' W 128°48'510.1
2018-Jul-16 16:00N 52°11' W 128°46'510.0
2018-Jul-16 15:31N 52°06' W 128°44'5 9.8
2018-Jul-16 15:00N 52°02' W 128°42'5 9.6
2018-Jul-16 14:31N 51°57' W 128°39'5 9.2
2018-Jul-16 14:00N 51°53' W 128°37'5 9.6
2018-Jul-16 13:31N 51°49' W 128°33'5 9.8
2018-Jul-16 13:00N 51°45' W 128°28'510.1
2018-Jul-16 12:30N 51°40' W 128°24'5 9.9
2018-Jul-16 12:01N 51°36' W 128°19'5 9.6
2018-Jul-16 11:31N 51°32' W 128°15'5 9.8
2018-Jul-16 11:00N 51°28' W 128°10'5 9.6
2018-Jul-16 10:31N 51°25' W 128°05'5 9.6
2018-Jul-16 10:01N 51°22' W 127°59'5 9.9
2018-Jul-16 09:31N 51°17' W 127°56'510.0
2018-Jul-16 08:59N 51°13' W 127°52'5 9.7
2018-Jul-16 08:30N 51°08' W 127°49'5 9.8
2018-Jul-16 08:00N 51°05' W 127°43'510.1
2018-Jul-16 07:30N 51°02' W 127°37'5 9.4
2018-Jul-16 07:01N 50°59' W 127°32'510.1
2018-Jul-16 06:31N 50°55' W 127°26'5 9.6
2018-Jul-16 06:00N 50°52' W 127°20'5 9.8
2018-Jul-16 05:29N 50°49' W 127°14'510.2
2018-Jul-16 04:59N 50°46' W 127°07'710.4
2018-Jul-16 04:21N 50°43' W 126°58'4 9.6
2018-Jul-16 03:53N 50°41' W 126°52'5 9.3
2018-Jul-16 03:21N 50°37' W 126°46'510.9
2018-Jul-16 02:55N 50°34' W 126°41'4 9.6
2018-Jul-16 02:29N 50°31' W 126°36'510.7
2018-Jul-16 02:00N 50°30' W 126°28'510.0
2018-Jul-16 01:30N 50°30' W 126°20'5 9.6
2018-Jul-16 01:00N 50°29' W 126°13'18 7.0
2018-Jul-15 22:21N 50°23' W 125°46'3 7.9
2018-Jul-15 21:58N 50°23' W 125°41'4 9.1
2018-Jul-15 21:30N 50°22' W 125°34'5 8.3
2018-Jul-15 20:54N 50°20' W 125°27'4 8.9
2018-Jul-15 20:30N 50°17' W 125°24'510.5
2018-Jul-15 20:01N 50°12' W 125°22'611.0
2018-Jul-15 19:30N 50°07' W 125°19'612.6
2018-Jul-15 19:00N 50°02' W 125°13'510.2
2018-Jul-15 18:30N 49°58' W 125°09'4 7.9
2018-Jul-15 18:00N 49°55' W 125°04'4 7.3
2018-Jul-15 17:30N 49°53' W 124°60'3 6.8
2018-Jul-15 17:00N 49°51' W 124°55'3 6.7
2018-Jul-15 16:30N 49°49' W 124°51'4 7.1
2018-Jul-15 16:00N 49°47' W 124°47'4 7.8
2018-Jul-15 15:30N 49°44' W 124°42'4 7.6
2018-Jul-15 15:00N 49°42' W 124°38'4 8.4
2018-Jul-15 14:30N 49°39' W 124°33'4 8.4
2018-Jul-15 14:00N 49°37' W 124°27'5 8.6
2018-Jul-15 13:29N 49°35' W 124°21'10 8.6
2018-Jul-15 12:19N 49°29' W 124°09'3 8.2
2018-Jul-15 11:59N 49°28' W 124°05'18 8.3
2018-Jul-15 09:46N 49°22' W 123°38'3 8.5
2018-Jul-15 09:28N 49°21' W 123°34'4 8.2
2018-Jul-15 08:58N 49°20' W 123°28'4 8.5
2018-Jul-15 08:30N 49°20' W 123°22'5 9.1
2018-Jul-15 08:00N 49°19' W 123°15'4 7.7
2018-Jul-15 07:30N 49°19' W 123°09'2 3.8
2018-Jul-15 07:00N 49°19' W 123°06'0 0.0
2018-Jul-15 06:30N 49°19' W 123°06'1 2.2
2018-Jul-15 06:01N 49°18' W 123°07'0 0.0
2018-Jul-15 05:30N 49°18' W 123°07'0 0.0
2018-Jul-15 05:01N 49°18' W 123°07'0 0.0
2018-Jul-15 04:30N 49°18' W 123°07'0 0.0
2018-Jul-15 04:01N 49°18' W 123°07'0 0.0
2018-Jul-15 03:30N 49°18' W 123°07'0 0.0
2018-Jul-15 03:00N 49°18' W 123°07'0 0.0
2018-Jul-15 02:30N 49°18' W 123°07'0 0.0
2018-Jul-15 02:01N 49°18' W 123°07'0 0.0
2018-Jul-15 01:30N 49°18' W 123°07'0 0.0
2018-Jul-15 01:01N 49°18' W 123°07'0 0.0
2018-Jul-15 00:31N 49°18' W 123°07'0 0.0
2018-Jul-15 00:01N 49°18' W 123°07'0 0.0
2018-Jul-14 23:31N 49°18' W 123°07'0 0.0
2018-Jul-14 22:59N 49°18' W 123°07'1 2.4
2018-Jul-14 22:30N 49°19' W 123°06'0 0.0
2018-Jul-14 22:01N 49°19' W 123°06'0 0.0
2018-Jul-14 21:30N 49°19' W 123°06'0 0.0
2018-Jul-14 21:01N 49°19' W 123°06'0 0.0
2018-Jul-14 20:30N 49°19' W 123°06'0 0.0
2018-Jul-14 20:01N 49°19' W 123°06'0 0.0
2018-Jul-14 19:30N 49°19' W 123°06'0 0.0
2018-Jul-13 10:32N 49°19' W 123°06'0 0.0
2018-Jul-13 10:30N 49°19' W 123°06'0 0.1
2018-Jul-13 10:00N 49°19' W 123°06'0 0.2
2018-Jul-13 09:30N 49°19' W 123°06'1 1.8
2018-Jul-13 09:00N 49°19' W 123°08'2 4.6
2018-Jul-13 08:30N 49°19' W 123°11'2 4.3
2018-Jul-13 08:00N 49°19' W 123°15'2 4.4
2018-Jul-13 07:29N 49°19' W 123°18'2 5.1
2018-Jul-13 07:00N 49°19' W 123°22'1 1.2
2018-Jul-13 06:30N 49°18' W 123°22'3 5.3
2018-Jul-13 05:58N 49°21' W 123°19'3 5.5
2018-Jul-13 05:30N 49°23' W 123°18'14 1.5
2018-Jul-12 20:23N 49°10' W 123°25'4 8.9
2018-Jul-12 19:58N 49°07' W 123°23'4 7.9
2018-Jul-12 19:27N 49°04' W 123°19'4 8.1
2018-Jul-12 18:59N 49°01' W 123°15'4 8.5
2018-Jul-12 18:29N 48°58' W 123°10'4 8.1
2018-Jul-12 17:58N 48°56' W 123°05'8 6.8
2018-Jul-12 16:44N 48°48' W 122°59'1 5.0
2018-Jul-12 16:27N 48°47' W 123°00'3 6.7
2018-Jul-12 15:58N 48°45' W 123°04'3 5.9
2018-Jul-12 15:30N 48°44' W 123°08'3 5.8
2018-Jul-12 15:00N 48°43' W 123°12'3 5.2
2018-Jul-12 14:30N 48°41' W 123°15'3 6.1
2018-Jul-12 14:00N 48°38' W 123°14'3 5.8
2018-Jul-12 13:30N 48°35' W 123°13'3 6.1
2018-Jul-12 13:00N 48°33' W 123°11'4 7.9
2018-Jul-12 12:30N 48°29' W 123°10'4 7.8
2018-Jul-12 12:00N 48°25' W 123°10'4 7.6
2018-Jul-12 11:30N 48°22' W 123°14'25 8.8
2018-Jul-12 08:37N 48°19' W 123°51'2 9.4
2018-Jul-12 08:23N 48°20' W 123°55'4 9.6
2018-Jul-12 07:59N 48°21' W 124°00'4 9.4
2018-Jul-12 07:30N 48°23' W 124°06'5 9.4
2018-Jul-12 07:00N 48°24' W 124°13'5 9.6
2018-Jul-12 06:30N 48°26' W 124°20'5 9.2
2018-Jul-12 06:00N 48°28' W 124°26'5 9.0
2018-Jul-12 05:30N 48°30' W 124°33'4 8.6
2018-Jul-12 05:00N 48°31' W 124°38'4 8.3
2018-Jul-12 04:30N 48°33' W 124°44'4 8.6
2018-Jul-12 04:00N 48°34' W 124°50'4 8.2
2018-Jul-12 03:30N 48°36' W 124°56'4 8.1
2018-Jul-12 02:59N 48°37' W 125°02'4 8.1
2018-Jul-12 02:30N 48°39' W 125°08'4 8.7
2018-Jul-12 02:00N 48°40' W 125°14'5 9.4
2018-Jul-12 01:30N 48°42' W 125°20'5 9.7
2018-Jul-12 01:00N 48°45' W 125°27'510.2
2018-Jul-12 00:30N 48°47' W 125°34'510.0
2018-Jul-12 00:00N 48°49' W 125°40'510.1
2018-Jul-11 23:30N 48°52' W 125°47'510.0
2018-Jul-11 23:00N 48°55' W 125°53'5 9.6
2018-Jul-11 22:30N 48°58' W 125°58'5 9.4
2018-Jul-11 22:00N 49°01' W 126°04'5 9.3
2018-Jul-11 21:30N 49°04' W 126°10'4 9.0
2018-Jul-11 21:00N 49°06' W 126°15'8 8.7
2018-Jul-11 20:05N 49°11' W 126°25'1 8.6
2018-Jul-11 20:00N 49°12' W 126°26'4 8.8
2018-Jul-11 19:30N 49°14' W 126°31'4 9.0
2018-Jul-11 19:00N 49°18' W 126°36'4 8.8
2018-Jul-11 18:30N 49°20' W 126°41'4 8.8
2018-Jul-11 18:00N 49°23' W 126°46'4 8.7
2018-Jul-11 17:29N 49°27' W 126°51'4 8.9
2018-Jul-11 17:00N 49°30' W 126°55'7 0.3
2018-Jul-10 18:09N 49°34' W 127°03'210.9
2018-Jul-10 17:57N 49°32' W 127°01'510.9
2018-Jul-10 17:30N 49°28' W 126°57'510.9
2018-Jul-10 17:00N 49°24' W 126°51'611.2
2018-Jul-10 16:30N 49°20' W 126°45'511.0
2018-Jul-10 16:00N 49°16' W 126°39'510.9
2018-Jul-10 15:30N 49°13' W 126°32'611.0
2018-Jul-10 14:57N 49°09' W 126°25'510.9
2018-Jul-10 14:30N 49°06' W 126°19'511.0
2018-Jul-10 14:00N 49°03' W 126°12'611.3
2018-Jul-10 13:30N 48°60' W 126°05'611.3
2018-Jul-10 13:00N 48°57' W 125°58'511.0
2018-Jul-10 12:30N 48°54' W 125°51'611.0
2018-Jul-10 12:00N 48°51' W 125°44'510.9
2018-Jul-10 11:30N 48°48' W 125°37'510.7
2018-Jul-10 11:00N 48°46' W 125°29'510.7
2018-Jul-10 10:30N 48°43' W 125°22'611.1
2018-Jul-10 09:59N 48°41' W 125°14'611.3
2018-Jul-10 09:30N 48°39' W 125°06'611.8
2018-Jul-10 08:58N 48°37' W 124°58'511.7
2018-Jul-10 08:30N 48°34' W 124°50'611.5
2018-Jul-10 08:00N 48°32' W 124°42'510.9
2018-Jul-10 07:30N 48°30' W 124°34'510.5
2018-Jul-10 07:00N 48°29' W 124°27'510.5
2018-Jul-10 06:30N 48°27' W 124°20'510.1
2018-Jul-10 06:00N 48°25' W 124°13'510.2
2018-Jul-10 05:30N 48°23' W 124°06'5 9.9
2018-Jul-10 05:00N 48°21' W 123°59'13 9.8
2018-Jul-10 03:43N 48°17' W 123°40'13 9.7
2018-Jul-10 02:21N 48°19' W 123°21'310.1
2018-Jul-10 02:00N 48°21' W 123°16'510.2
2018-Jul-10 01:30N 48°25' W 123°12'611.5
2018-Jul-10 01:00N 48°30' W 123°13'510.6
2018-Jul-10 00:30N 48°36' W 123°14'510.2
2018-Jul-10 00:00N 48°41' W 123°15'5 9.0
2018-Jul-09 23:30N 48°44' W 123°10'510.6
2018-Jul-09 23:00N 48°46' W 123°03'4 7.8
2018-Jul-09 22:30N 48°50' W 123°03'510.2
2018-Jul-09 22:00N 48°53' W 123°08'5 9.8
2018-Jul-09 21:30N 48°57' W 123°14'510.2
2018-Jul-09 21:00N 49°01' W 123°19'6 9.8
2018-Jul-09 20:23N 49°05' W 123°25'410.3
2018-Jul-09 20:00N 49°09' W 123°25'510.6
2018-Jul-09 19:29N 49°14' W 123°26'510.3
2018-Jul-09 19:00N 49°19' W 123°27'5 7.0
2018-Jul-09 18:21N 49°24' W 123°25'3 1.0
2018-Jul-09 14:46N 49°27' W 123°28'1 4.2
2018-Jul-09 14:28N 49°26' W 123°27'18 5.5
2018-Jul-09 11:08N 49°26' W 123°55'2 9.4
2018-Jul-09 10:55N 49°27' W 123°58'4 9.2
2018-Jul-09 10:30N 49°28' W 124°04'9 9.2
2018-Jul-09 09:33N 49°32' W 124°16'1 9.3
2018-Jul-09 09:29N 49°32' W 124°17'5 9.3
2018-Jul-09 08:56N 49°34' W 124°24'4 8.7
2018-Jul-09 08:28N 49°36' W 124°29'4 8.9
2018-Jul-09 08:00N 49°39' W 124°34'5 9.2
2018-Jul-09 07:30N 49°41' W 124°40'5 9.0
2018-Jul-09 07:00N 49°44' W 124°46'5 9.4
2018-Jul-09 06:30N 49°47' W 124°51'5 9.3
2018-Jul-09 05:59N 49°50' W 124°56'4 8.9
2018-Jul-09 05:30N 49°53' W 125°01'5 9.4
2018-Jul-09 05:00N 49°56' W 125°07'5 9.5
2018-Jul-09 04:30N 49°60' W 125°12'5 9.5
2018-Jul-09 04:00N 50°04' W 125°15'4 8.2
2018-Jul-09 03:30N 50°07' W 125°19'4 7.1
2018-Jul-09 03:00N 50°10' W 125°22'3 5.1
2018-Jul-09 02:28N 50°13' W 125°22'2 4.2
2018-Jul-09 01:59N 50°15' W 125°23'3 5.1
2018-Jul-09 01:23N 50°18' W 125°25'2 5.3
2018-Jul-09 00:57N 50°20' W 125°26'9 4.5
2018-Jul-08 23:01N 50°22' W 125°39'26 4.9
2018-Jul-08 17:42N 50°29' W 126°18'67 7.3
2018-Jul-08 08:31N 51°06' W 127°47'1 8.7
2018-Jul-08 08:23N 51°07' W 127°48'3 8.4
2018-Jul-08 07:59N 51°10' W 127°51'4 8.8
2018-Jul-08 07:29N 51°14' W 127°53'5 9.5
2018-Jul-08 07:00N 51°19' W 127°56'5 9.4
2018-Jul-08 06:30N 51°23' W 127°59'5 9.1
2018-Jul-08 06:00N 51°25' W 128°05'5 9.2
2018-Jul-08 05:30N 51°28' W 128°11'5 9.2
2018-Jul-08 05:00N 51°32' W 128°15'5 9.3
2018-Jul-08 04:30N 51°35' W 128°19'5 9.3
2018-Jul-08 04:00N 51°39' W 128°23'5 9.2
2018-Jul-08 03:30N 51°43' W 128°27'5 9.0
2018-Jul-08 03:00N 51°47' W 128°31'4 8.5
2018-Jul-08 02:30N 51°51' W 128°34'4 8.6
2018-Jul-08 02:00N 51°55' W 128°36'4 8.9
2018-Jul-08 01:30N 51°59' W 128°39'4 8.9
2018-Jul-08 01:00N 52°03' W 128°41'5 8.9
2018-Jul-08 00:30N 52°08' W 128°44'4 8.8
2018-Jul-08 00:00N 52°12' W 128°46'92 8.6
2018-Jul-07 13:14N 53°31' W 130°05'2 8.3
2018-Jul-07 13:00N 53°32' W 130°08'16 8.7
2018-Jul-07 11:08N 53°41' W 130°30'1 8.8
2018-Jul-07 11:00N 53°42' W 130°32'5 8.8
2018-Jul-07 10:27N 53°45' W 130°38'4 9.1
2018-Jul-07 10:00N 53°47' W 130°43'5 9.0
2018-Jul-07 09:30N 53°50' W 130°50'5 9.3
2018-Jul-07 09:00N 53°53' W 130°56'4 8.9
2018-Jul-07 08:30N 53°57' W 130°59'5 9.2
2018-Jul-07 08:00N 54°01' W 131°01'5 9.0
2018-Jul-07 07:30N 54°06' W 131°02'5 9.2
2018-Jul-07 07:00N 54°10' W 131°03'5 9.1
2018-Jul-07 06:30N 54°15' W 131°02'4 7.9
2018-Jul-07 06:00N 54°18' W 130°58'5 9.5
2018-Jul-07 05:29N 54°19' W 130°50'4 9.3
2018-Jul-07 05:00N 54°19' W 130°42'4 8.6
2018-Jul-07 04:30N 54°22' W 130°37'5 9.1
2018-Jul-07 04:00N 54°26' W 130°34'5 9.2
2018-Jul-07 03:29N 54°31' W 130°32'  
Track history (hours):
 
Tides and Currents Weather Stations Pressure Air Temp Water Temp Dewpoint Dewpoint Depression Visibility Wind Speed Wind Dir Waves Ship Positions

Seaspan Royal

Last reported at 2018-Jul-16 20:09 UTC. Time now 2018-Jul-17 19:01 UTC.
Position N 52°47' W 129°08'.

Length 40 m; draft 5.6 m.

Type: Tug. MMSI: 316003600.

Date/timePositionNaut miles runAvg speedWind from/ knotsBaromVisibWave heightAir tempDewpointWater temp
2018-Jul-16 20:09N 52°47' W 129°08'2 9.0
2018-Jul-16 19:59N 52°45' W 129°07'5 8.9
2018-Jul-16 19:25N 52°42' W 129°01'3 8.3
2018-Jul-16 19:01N 52°39' W 128°56'6 8.8
2018-Jul-16 18:21N 52°34' W 128°53'3 9.0
2018-Jul-16 18:00N 52°31' W 128°52'5 9.4
2018-Jul-16 17:31N 52°26' W 128°51'510.7
2018-Jul-16 17:01N 52°21' W 128°50'510.4
2018-Jul-16 16:31N 52°16' W 128°48'510.1
2018-Jul-16 16:00N 52°11' W 128°46'510.0
2018-Jul-16 15:31N 52°06' W 128°44'5 9.8
2018-Jul-16 15:00N 52°02' W 128°42'5 9.6
2018-Jul-16 14:31N 51°57' W 128°39'5 9.2
2018-Jul-16 14:00N 51°53' W 128°37'5 9.6
2018-Jul-16 13:31N 51°49' W 128°33'5 9.8
2018-Jul-16 13:00N 51°45' W 128°28'510.1
2018-Jul-16 12:30N 51°40' W 128°24'5 9.9
2018-Jul-16 12:01N 51°36' W 128°19'5 9.6
2018-Jul-16 11:31N 51°32' W 128°15'5 9.8
2018-Jul-16 11:00N 51°28' W 128°10'5 9.6
2018-Jul-16 10:31N 51°25' W 128°05'5 9.6
2018-Jul-16 10:01N 51°22' W 127°59'5 9.9
2018-Jul-16 09:31N 51°17' W 127°56'510.0
2018-Jul-16 08:59N 51°13' W 127°52'5 9.7
2018-Jul-16 08:30N 51°08' W 127°49'5 9.8
2018-Jul-16 08:00N 51°05' W 127°43'510.1
2018-Jul-16 07:30N 51°02' W 127°37'5 9.4
2018-Jul-16 07:01N 50°59' W 127°32'510.1
2018-Jul-16 06:31N 50°55' W 127°26'5 9.6
2018-Jul-16 06:00N 50°52' W 127°20'5 9.8
2018-Jul-16 05:29N 50°49' W 127°14'510.2
2018-Jul-16 04:59N 50°46' W 127°07'710.4
2018-Jul-16 04:21N 50°43' W 126°58'4 9.6
2018-Jul-16 03:53N 50°41' W 126°52'5 9.3
2018-Jul-16 03:21N 50°37' W 126°46'510.9
2018-Jul-16 02:55N 50°34' W 126°41'4 9.6
2018-Jul-16 02:29N 50°31' W 126°36'510.7
2018-Jul-16 02:00N 50°30' W 126°28'510.0
2018-Jul-16 01:30N 50°30' W 126°20'5 9.6
2018-Jul-16 01:00N 50°29' W 126°13'18 7.0
2018-Jul-15 22:21N 50°23' W 125°46'3 7.9
2018-Jul-15 21:58N 50°23' W 125°41'4 9.1
2018-Jul-15 21:30N 50°22' W 125°34'5 8.3
2018-Jul-15 20:54N 50°20' W 125°27'4 8.9
2018-Jul-15 20:30N 50°17' W 125°24'510.5
2018-Jul-15 20:01N 50°12' W 125°22'611.0
2018-Jul-15 19:30N 50°07' W 125°19'612.6
2018-Jul-15 19:00N 50°02' W 125°13'510.2
2018-Jul-15 18:30N 49°58' W 125°09'4 7.9
2018-Jul-15 18:00N 49°55' W 125°04'4 7.3
2018-Jul-15 17:30N 49°53' W 124°60'3 6.8
2018-Jul-15 17:00N 49°51' W 124°55'3 6.7
2018-Jul-15 16:30N 49°49' W 124°51'4 7.1
2018-Jul-15 16:00N 49°47' W 124°47'4 7.8
2018-Jul-15 15:30N 49°44' W 124°42'4 7.6
2018-Jul-15 15:00N 49°42' W 124°38'4 8.4
2018-Jul-15 14:30N 49°39' W 124°33'4 8.4
2018-Jul-15 14:00N 49°37' W 124°27'5 8.6
2018-Jul-15 13:29N 49°35' W 124°21'10 8.6
2018-Jul-15 12:19N 49°29' W 124°09'3 8.2
2018-Jul-15 11:59N 49°28' W 124°05'18 8.3
2018-Jul-15 09:46N 49°22' W 123°38'3 8.5
2018-Jul-15 09:28N 49°21' W 123°34'4 8.2
2018-Jul-15 08:58N 49°20' W 123°28'4 8.5
2018-Jul-15 08:30N 49°20' W 123°22'5 9.1
2018-Jul-15 08:00N 49°19' W 123°15'4 7.7
2018-Jul-15 07:30N 49°19' W 123°09'2 3.8
2018-Jul-15 07:00N 49°19' W 123°06'0 0.0
2018-Jul-15 06:30N 49°19' W 123°06'1 2.2
2018-Jul-15 06:01N 49°18' W 123°07'0 0.0
2018-Jul-15 05:30N 49°18' W 123°07'0 0.0
2018-Jul-15 05:01N 49°18' W 123°07'0 0.0
2018-Jul-15 04:30N 49°18' W 123°07'0 0.0
2018-Jul-15 04:01N 49°18' W 123°07'0 0.0
2018-Jul-15 03:30N 49°18' W 123°07'0 0.0
2018-Jul-15 03:00N 49°18' W 123°07'0 0.0
2018-Jul-15 02:30N 49°18' W 123°07'0 0.0
2018-Jul-15 02:01N 49°18' W 123°07'0 0.0
2018-Jul-15 01:30N 49°18' W 123°07'0 0.0
2018-Jul-15 01:01N 49°18' W 123°07'0 0.0
2018-Jul-15 00:31N 49°18' W 123°07'0 0.0
2018-Jul-15 00:01N 49°18' W 123°07'0 0.0
2018-Jul-14 23:31N 49°18' W 123°07'0 0.0
2018-Jul-14 22:59N 49°18' W 123°07'1 2.4
2018-Jul-14 22:30N 49°19' W 123°06'0 0.0
2018-Jul-14 22:01N 49°19' W 123°06'0 0.0
2018-Jul-14 21:30N 49°19' W 123°06'0 0.0
2018-Jul-14 21:01N 49°19' W 123°06'0 0.0
2018-Jul-14 20:30N 49°19' W 123°06'0 0.0
2018-Jul-14 20:01N 49°19' W 123°06'0 0.0
2018-Jul-14 19:30N 49°19' W 123°06'0 0.0
2018-Jul-13 10:32N 49°19' W 123°06'0 0.0
2018-Jul-13 10:30N 49°19' W 123°06'0 0.1
2018-Jul-13 10:00N 49°19' W 123°06'0 0.2
2018-Jul-13 09:30N 49°19' W 123°06'1 1.8
2018-Jul-13 09:00N 49°19' W 123°08'2 4.6
2018-Jul-13 08:30N 49°19' W 123°11'2 4.3
2018-Jul-13 08:00N 49°19' W 123°15'2 4.4
2018-Jul-13 07:29N 49°19' W 123°18'2 5.1
2018-Jul-13 07:00N 49°19' W 123°22'1 1.2
2018-Jul-13 06:30N 49°18' W 123°22'3 5.3
2018-Jul-13 05:58N 49°21' W 123°19'3 5.5
2018-Jul-13 05:30N 49°23' W 123°18'14 1.5
2018-Jul-12 20:23N 49°10' W 123°25'4 8.9
2018-Jul-12 19:58N 49°07' W 123°23'4 7.9
2018-Jul-12 19:27N 49°04' W 123°19'4 8.1
2018-Jul-12 18:59N 49°01' W 123°15'4 8.5
2018-Jul-12 18:29N 48°58' W 123°10'4 8.1
2018-Jul-12 17:58N 48°56' W 123°05'8 6.8
2018-Jul-12 16:44N 48°48' W 122°59'1 5.0
2018-Jul-12 16:27N 48°47' W 123°00'3 6.7
2018-Jul-12 15:58N 48°45' W 123°04'3 5.9
2018-Jul-12 15:30N 48°44' W 123°08'3 5.8
2018-Jul-12 15:00N 48°43' W 123°12'3 5.2
2018-Jul-12 14:30N 48°41' W 123°15'3 6.1
2018-Jul-12 14:00N 48°38' W 123°14'3 5.8
2018-Jul-12 13:30N 48°35' W 123°13'3 6.1
2018-Jul-12 13:00N 48°33' W 123°11'4 7.9
2018-Jul-12 12:30N 48°29' W 123°10'4 7.8
2018-Jul-12 12:00N 48°25' W 123°10'4 7.6
2018-Jul-12 11:30N 48°22' W 123°14'25 8.8
2018-Jul-12 08:37N 48°19' W 123°51'2 9.4
2018-Jul-12 08:23N 48°20' W 123°55'4 9.6
2018-Jul-12 07:59N 48°21' W 124°00'4 9.4
2018-Jul-12 07:30N 48°23' W 124°06'5 9.4
2018-Jul-12 07:00N 48°24' W 124°13'5 9.6
2018-Jul-12 06:30N 48°26' W 124°20'5 9.2
2018-Jul-12 06:00N 48°28' W 124°26'5 9.0
2018-Jul-12 05:30N 48°30' W 124°33'4 8.6
2018-Jul-12 05:00N 48°31' W 124°38'4 8.3
2018-Jul-12 04:30N 48°33' W 124°44'4 8.6
2018-Jul-12 04:00N 48°34' W 124°50'4 8.2
2018-Jul-12 03:30N 48°36' W 124°56'4 8.1
2018-Jul-12 02:59N 48°37' W 125°02'4 8.1
2018-Jul-12 02:30N 48°39' W 125°08'4 8.7
2018-Jul-12 02:00N 48°40' W 125°14'5 9.4
2018-Jul-12 01:30N 48°42' W 125°20'5 9.7
2018-Jul-12 01:00N 48°45' W 125°27'510.2
2018-Jul-12 00:30N 48°47' W 125°34'510.0
2018-Jul-12 00:00N 48°49' W 125°40'510.1
2018-Jul-11 23:30N 48°52' W 125°47'510.0
2018-Jul-11 23:00N 48°55' W 125°53'5 9.6
2018-Jul-11 22:30N 48°58' W 125°58'5 9.4
2018-Jul-11 22:00N 49°01' W 126°04'5 9.3
2018-Jul-11 21:30N 49°04' W 126°10'4 9.0
2018-Jul-11 21:00N 49°06' W 126°15'8 8.7
2018-Jul-11 20:05N 49°11' W 126°25'1 8.6
2018-Jul-11 20:00N 49°12' W 126°26'4 8.8
2018-Jul-11 19:30N 49°14' W 126°31'4 9.0
2018-Jul-11 19:00N 49°18' W 126°36'4 8.8
2018-Jul-11 18:30N 49°20' W 126°41'4 8.8
2018-Jul-11 18:00N 49°23' W 126°46'4 8.7
2018-Jul-11 17:29N 49°27' W 126°51'4 8.9
2018-Jul-11 17:00N 49°30' W 126°55'7 0.3
2018-Jul-10 18:09N 49°34' W 127°03'210.9
2018-Jul-10 17:57N 49°32' W 127°01'510.9
2018-Jul-10 17:30N 49°28' W 126°57'510.9
2018-Jul-10 17:00N 49°24' W 126°51'611.2
2018-Jul-10 16:30N 49°20' W 126°45'511.0
2018-Jul-10 16:00N 49°16' W 126°39'510.9
2018-Jul-10 15:30N 49°13' W 126°32'611.0
2018-Jul-10 14:57N 49°09' W 126°25'510.9
2018-Jul-10 14:30N 49°06' W 126°19'511.0
2018-Jul-10 14:00N 49°03' W 126°12'611.3
2018-Jul-10 13:30N 48°60' W 126°05'611.3
2018-Jul-10 13:00N 48°57' W 125°58'511.0
2018-Jul-10 12:30N 48°54' W 125°51'611.0
2018-Jul-10 12:00N 48°51' W 125°44'510.9
2018-Jul-10 11:30N 48°48' W 125°37'510.7
2018-Jul-10 11:00N 48°46' W 125°29'510.7
2018-Jul-10 10:30N 48°43' W 125°22'611.1
2018-Jul-10 09:59N 48°41' W 125°14'611.3
2018-Jul-10 09:30N 48°39' W 125°06'611.8
2018-Jul-10 08:58N 48°37' W 124°58'511.7
2018-Jul-10 08:30N 48°34' W 124°50'611.5
2018-Jul-10 08:00N 48°32' W 124°42'510.9
2018-Jul-10 07:30N 48°30' W 124°34'510.5
2018-Jul-10 07:00N 48°29' W 124°27'510.5
2018-Jul-10 06:30N 48°27' W 124°20'510.1
2018-Jul-10 06:00N 48°25' W 124°13'510.2
2018-Jul-10 05:30N 48°23' W 124°06'5 9.9
2018-Jul-10 05:00N 48°21' W 123°59'13 9.8
2018-Jul-10 03:43N 48°17' W 123°40'13 9.7
2018-Jul-10 02:21N 48°19' W 123°21'310.1
2018-Jul-10 02:00N 48°21' W 123°16'510.2
2018-Jul-10 01:30N 48°25' W 123°12'611.5
2018-Jul-10 01:00N 48°30' W 123°13'510.6
2018-Jul-10 00:30N 48°36' W 123°14'510.2
2018-Jul-10 00:00N 48°41' W 123°15'5 9.0
2018-Jul-09 23:30N 48°44' W 123°10'510.6
2018-Jul-09 23:00N 48°46' W 123°03'4 7.8
2018-Jul-09 22:30N 48°50' W 123°03'510.2
2018-Jul-09 22:00N 48°53' W 123°08'5 9.8
2018-Jul-09 21:30N 48°57' W 123°14'510.2
2018-Jul-09 21:00N 49°01' W 123°19'6 9.8
2018-Jul-09 20:23N 49°05' W 123°25'410.3
2018-Jul-09 20:00N 49°09' W 123°25'510.6
2018-Jul-09 19:29N 49°14' W 123°26'510.3
2018-Jul-09 19:00N 49°19' W 123°27'5 7.0
2018-Jul-09 18:21N 49°24' W 123°25'3 1.0
2018-Jul-09 14:46N 49°27' W 123°28'1 4.2
2018-Jul-09 14:28N 49°26' W 123°27'18 5.5
2018-Jul-09 11:08N 49°26' W 123°55'2 9.4
2018-Jul-09 10:55N 49°27' W 123°58'4 9.2
2018-Jul-09 10:30N 49°28' W 124°04'9 9.2
2018-Jul-09 09:33N 49°32' W 124°16'1 9.3
2018-Jul-09 09:29N 49°32' W 124°17'5 9.3
2018-Jul-09 08:56N 49°34' W 124°24'4 8.7
2018-Jul-09 08:28N 49°36' W 124°29'4 8.9
2018-Jul-09 08:00N 49°39' W 124°34'5 9.2
2018-Jul-09 07:30N 49°41' W 124°40'5 9.0
2018-Jul-09 07:00N 49°44' W 124°46'5 9.4
2018-Jul-09 06:30N 49°47' W 124°51'5 9.3
2018-Jul-09 05:59N 49°50' W 124°56'4 8.9
2018-Jul-09 05:30N 49°53' W 125°01'5 9.4
2018-Jul-09 05:00N 49°56' W 125°07'5 9.5
2018-Jul-09 04:30N 49°60' W 125°12'5 9.5
2018-Jul-09 04:00N 50°04' W 125°15'4 8.2
2018-Jul-09 03:30N 50°07' W 125°19'4 7.1
2018-Jul-09 03:00N 50°10' W 125°22'3 5.1
2018-Jul-09 02:28N 50°13' W 125°22'2 4.2
2018-Jul-09 01:59N 50°15' W 125°23'3 5.1
2018-Jul-09 01:23N 50°18' W 125°25'2 5.3
2018-Jul-09 00:57N 50°20' W 125°26'9 4.5
2018-Jul-08 23:01N 50°22' W 125°39'26 4.9
2018-Jul-08 17:42N 50°29' W 126°18'67 7.3
2018-Jul-08 08:31N 51°06' W 127°47'1 8.7
2018-Jul-08 08:23N 51°07' W 127°48'3 8.4
2018-Jul-08 07:59N 51°10' W 127°51'4 8.8
2018-Jul-08 07:29N 51°14' W 127°53'5 9.5
2018-Jul-08 07:00N 51°19' W 127°56'5 9.4
2018-Jul-08 06:30N 51°23' W 127°59'5 9.1
2018-Jul-08 06:00N 51°25' W 128°05'5 9.2
2018-Jul-08 05:30N 51°28' W 128°11'5 9.2
2018-Jul-08 05:00N 51°32' W 128°15'5 9.3
2018-Jul-08 04:30N 51°35' W 128°19'5 9.3
2018-Jul-08 04:00N 51°39' W 128°23'5 9.2
2018-Jul-08 03:30N 51°43' W 128°27'5 9.0
2018-Jul-08 03:00N 51°47' W 128°31'4 8.5
2018-Jul-08 02:30N 51°51' W 128°34'4 8.6
2018-Jul-08 02:00N 51°55' W 128°36'4 8.9
2018-Jul-08 01:30N 51°59' W 128°39'4 8.9
2018-Jul-08 01:00N 52°03' W 128°41'5 8.9
2018-Jul-08 00:30N 52°08' W 128°44'4 8.8
2018-Jul-08 00:00N 52°12' W 128°46'92 8.6
2018-Jul-07 13:14N 53°31' W 130°05'2 8.3
2018-Jul-07 13:00N 53°32' W 130°08'16 8.7
2018-Jul-07 11:08N 53°41' W 130°30'1 8.8
2018-Jul-07 11:00N 53°42' W 130°32'5 8.8
2018-Jul-07 10:27N 53°45' W 130°38'4 9.1
2018-Jul-07 10:00N 53°47' W 130°43'5 9.0
2018-Jul-07 09:30N 53°50' W 130°50'5 9.3
2018-Jul-07 09:00N 53°53' W 130°56'4 8.9
2018-Jul-07 08:30N 53°57' W 130°59'5 9.2
2018-Jul-07 08:00N 54°01' W 131°01'5 9.0
2018-Jul-07 07:30N 54°06' W 131°02'5 9.2
2018-Jul-07 07:00N 54°10' W 131°03'5 9.1
2018-Jul-07 06:30N 54°15' W 131°02'4 7.9
2018-Jul-07 06:00N 54°18' W 130°58'5 9.5
2018-Jul-07 05:29N 54°19' W 130°50'4 9.3
2018-Jul-07 05:00N 54°19' W 130°42'4 8.6
2018-Jul-07 04:30N 54°22' W 130°37'5 9.1
2018-Jul-07 04:00N 54°26' W 130°34'5 9.2
2018-Jul-07 03:29N 54°31' W 130°32'  

Dump ship's entire track history